createdAt,value
2022-08-05T00:02:07.886Z,6.10
2022-08-05T00:08:54.579Z,6.00
2022-08-05T00:15:57.694Z,5.70
2022-08-05T00:22:41.483Z,5.90
2022-08-05T00:44:04.183Z,5.70
2022-08-05T00:57:31.829Z,5.20
2022-08-05T01:04:26.760Z,5.70
2022-08-05T01:18:48.172Z,6.50
2022-08-05T07:21:25.595Z,6.50
2022-08-05T08:08:06.804Z,8.70
2022-08-05T08:14:32.899Z,6.80
2022-08-05T10:09:02.025Z,5.80
2022-08-05T10:15:54.592Z,7.40
2022-08-05T10:22:40.525Z,7.20
2022-08-05T10:30:06.868Z,4.70
2022-08-05T10:36:35.090Z,17.50
2022-08-05T10:43:17.565Z,6.80
2022-08-05T10:50:32.473Z,5.70
2022-08-05T10:57:19.111Z,8.00
2022-08-05T11:11:57.527Z,4.40
2022-08-05T11:18:06.875Z,10.90
2022-08-05T11:24:30.383Z,7.10
2022-08-05T11:54:40.709Z,5.00
2022-08-05T12:01:26.426Z,5.10
2022-08-05T12:08:11.853Z,5.70
2022-08-05T12:15:05.871Z,4.60
2022-08-05T12:22:04.039Z,5.00
2022-08-05T12:34:23.794Z,5.60
2022-08-05T12:53:43.408Z,5.70
2022-08-05T13:02:00.626Z,4.40
2022-08-05T13:06:50.754Z,3.90
2022-08-05T13:21:21.833Z,3.70
2022-08-05T13:28:08.370Z,3.10
2022-08-05T13:54:15.283Z,3.30
2022-08-05T14:01:03.028Z,4.90
2022-08-05T14:07:25.559Z,3.10
2022-08-05T14:14:14.904Z,3.60
2022-08-05T14:54:28.681Z,3.70
2022-08-05T14:59:51.479Z,3.20
2022-08-05T15:06:16.000Z,3.60
2022-08-05T15:12:59.701Z,3.30
2022-08-05T15:18:58.163Z,3.20
2022-08-05T15:24:49.355Z,3.60
2022-08-05T15:31:11.931Z,4.20
2022-08-05T15:37:19.390Z,3.30
2022-08-05T15:44:05.300Z,3.60
2022-08-05T15:50:31.502Z,3.70
2022-08-05T15:56:15.154Z,4.30
2022-08-05T16:03:05.231Z,3.60
2022-08-05T16:09:46.906Z,3.50
2022-08-05T16:16:55.980Z,3.90
2022-08-05T16:23:53.909Z,3.90
2022-08-05T16:38:03.627Z,4.40
2022-08-05T16:44:54.303Z,3.70
2022-08-05T16:51:51.070Z,4.20
2022-08-05T16:59:10.365Z,3.50
2022-08-05T17:05:54.236Z,6.60
2022-08-05T17:12:51.699Z,6.30
2022-08-05T17:19:09.690Z,6.20
2022-08-05T17:32:17.006Z,5.60
2022-08-05T17:38:23.059Z,5.90
2022-08-05T17:45:10.108Z,8.00
2022-08-05T17:58:13.059Z,10.40
2022-08-05T18:04:07.807Z,5.50
2022-08-05T18:34:58.711Z,14.60
2022-08-05T19:06:11.443Z,13.80
2022-08-05T19:13:12.283Z,17.40
2022-08-05T19:20:11.832Z,16.10
2022-08-05T19:27:12.087Z,14.30
2022-08-05T19:34:10.617Z,12.30
2022-08-05T19:41:06.988Z,14.50
2022-08-05T20:00:28.146Z,15.40
2022-08-05T20:03:38.041Z,16.30
2022-08-05T20:07:59.435Z,12.40
2022-08-05T20:13:54.715Z,13.60
2022-08-05T20:26:40.000Z,14.60
2022-08-05T20:33:27.783Z,17.90
2022-08-05T20:40:34.664Z,11.90
2022-08-05T20:47:32.198Z,13.40
2022-08-05T21:00:21.094Z,14.60
2022-08-05T21:49:58.745Z,14.00
2022-08-05T22:02:08.981Z,12.20
2022-08-05T22:07:40.392Z,27.80
2022-08-05T22:14:34.515Z,32.80
2022-08-05T22:20:03.266Z,29.30
2022-08-05T22:26:11.398Z,22.00
2022-08-05T22:31:44.477Z,17.30
2022-08-05T22:58:43.726Z,13.10
2022-08-05T23:18:03.609Z,11.40
2022-08-05T23:23:53.805Z,11.80
2022-08-05T23:29:17.796Z,12.00
2022-08-05T23:34:41.193Z,11.60
2022-08-05T23:40:07.825Z,11.50
2022-08-05T23:45:31.286Z,11.70
2022-08-05T23:50:55.172Z,11.60
2022-08-05T23:56:20.021Z,13.10
